sensor_id;sensor_type;location;lat;lon;timestamp;P1;durP1;ratioP1;P2;durP2;ratioP2
57561;SDS011;43397;51.530;5.974;2022-10-16T00:01:06;9.60;;;5.25;;
57561;SDS011;43397;51.530;5.974;2022-10-16T00:03:33;8.80;;;6.18;;
57561;SDS011;43397;51.530;5.974;2022-10-16T00:05:59;9.43;;;5.40;;
57561;SDS011;43397;51.530;5.974;2022-10-16T00:08:26;8.02;;;5.22;;
57561;SDS011;43397;51.530;5.974;2022-10-16T00:10:57;16.25;;;5.47;;
57561;SDS011;43397;51.530;5.974;2022-10-16T00:13:24;10.60;;;5.32;;
57561;SDS011;43397;51.530;5.974;2022-10-16T00:15:52;7.97;;;5.00;;
57561;SDS011;43397;51.530;5.974;2022-10-16T00:18:20;9.48;;;4.82;;
57561;SDS011;43397;51.530;5.974;2022-10-16T00:20:46;8.13;;;4.93;;
57561;SDS011;43397;51.530;5.974;2022-10-16T00:23:12;10.23;;;5.25;;
57561;SDS011;43397;51.530;5.974;2022-10-16T00:25:38;9.52;;;5.32;;
57561;SDS011;43397;51.530;5.974;2022-10-16T00:28:04;8.40;;;4.93;;
57561;SDS011;43397;51.530;5.974;2022-10-16T00:30:29;7.45;;;4.85;;
57561;SDS011;43397;51.530;5.974;2022-10-16T00:32:56;7.88;;;4.80;;
57561;SDS011;43397;51.530;5.974;2022-10-16T00:35:22;7.90;;;4.90;;
57561;SDS011;43397;51.530;5.974;2022-10-16T00:37:48;8.88;;;5.03;;
57561;SDS011;43397;51.530;5.974;2022-10-16T00:40:14;8.95;;;4.85;;
57561;SDS011;43397;51.530;5.974;2022-10-16T00:42:40;9.48;;;4.63;;
57561;SDS011;43397;51.530;5.974;2022-10-16T00:45:07;8.60;;;5.07;;
57561;SDS011;43397;51.530;5.974;2022-10-16T00:47:34;7.55;;;4.40;;
57561;SDS011;43397;51.530;5.974;2022-10-16T00:50:04;7.78;;;5.05;;
57561;SDS011;43397;51.530;5.974;2022-10-16T00:52:34;8.45;;;4.32;;
57561;SDS011;43397;51.530;5.974;2022-10-16T00:55:02;7.53;;;4.53;;
57561;SDS011;43397;51.530;5.974;2022-10-16T00:57:29;8.43;;;4.18;;
57561;SDS011;43397;51.530;5.974;2022-10-16T00:59:55;6.82;;;4.28;;
57561;SDS011;43397;51.530;5.974;2022-10-16T01:02:23;6.75;;;3.92;;
57561;SDS011;43397;51.530;5.974;2022-10-16T01:04:49;8.48;;;4.32;;
57561;SDS011;43397;51.530;5.974;2022-10-16T01:07:23;8.35;;;4.53;;
57561;SDS011;43397;51.530;5.974;2022-10-16T01:10:06;7.35;;;4.22;;
57561;SDS011;43397;51.530;5.974;2022-10-16T01:12:40;5.82;;;3.80;;
57561;SDS011;43397;51.530;5.974;2022-10-16T01:15:11;9.07;;;4.40;;
57561;SDS011;43397;51.530;5.974;2022-10-16T01:17:44;6.22;;;3.90;;
57561;SDS011;43397;51.530;5.974;2022-10-16T01:20:15;7.25;;;3.92;;
57561;SDS011;43397;51.530;5.974;2022-10-16T01:22:56;6.60;;;4.13;;
57561;SDS011;43397;51.530;5.974;2022-10-16T01:25:31;5.80;;;3.78;;
57561;SDS011;43397;51.530;5.974;2022-10-16T01:28:06;6.40;;;3.72;;
57561;SDS011;43397;51.530;5.974;2022-10-16T01:30:36;8.32;;;3.83;;
57561;SDS011;43397;51.530;5.974;2022-10-16T01:33:07;7.65;;;3.63;;
57561;SDS011;43397;51.530;5.974;2022-10-16T01:35:39;6.40;;;4.07;;
57561;SDS011;43397;51.530;5.974;2022-10-16T01:38:10;6.35;;;3.90;;
57561;SDS011;43397;51.530;5.974;2022-10-16T01:40:41;7.40;;;3.95;;
57561;SDS011;43397;51.530;5.974;2022-10-16T01:43:12;7.50;;;3.28;;
57561;SDS011;43397;51.530;5.974;2022-10-16T01:45:42;7.60;;;3.95;;
57561;SDS011;43397;51.530;5.974;2022-10-16T01:48:11;8.98;;;3.85;;
57561;SDS011;43397;51.530;5.974;2022-10-16T01:50:39;6.18;;;3.63;;
57561;SDS011;43397;51.530;5.974;2022-10-16T01:53:08;7.97;;;3.45;;
57561;SDS011;43397;51.530;5.974;2022-10-16T01:55:43;7.57;;;3.30;;
57561;SDS011;43397;51.530;5.974;2022-10-16T01:58:13;7.10;;;4.13;;
57561;SDS011;43397;51.530;5.974;2022-10-16T02:00:39;6.68;;;3.30;;
57561;SDS011;43397;51.530;5.974;2022-10-16T02:03:07;7.10;;;3.22;;
57561;SDS011;43397;51.530;5.974;2022-10-16T02:05:37;6.07;;;3.55;;
57561;SDS011;43397;51.530;5.974;2022-10-16T02:08:10;5.53;;;3.40;;
57561;SDS011;43397;51.530;5.974;2022-10-16T02:10:36;5.88;;;3.25;;
57561;SDS011;43397;51.530;5.974;2022-10-16T02:13:06;6.32;;;3.70;;
57561;SDS011;43397;51.530;5.974;2022-10-16T02:15:37;7.03;;;3.50;;
57561;SDS011;43397;51.530;5.974;2022-10-16T02:18:03;7.05;;;3.60;;
57561;SDS011;43397;51.530;5.974;2022-10-16T02:20:32;6.88;;;3.60;;
57561;SDS011;43397;51.530;5.974;2022-10-16T02:23:02;5.63;;;3.20;;
57561;SDS011;43397;51.530;5.974;2022-10-16T02:25:29;6.28;;;2.88;;
57561;SDS011;43397;51.530;5.974;2022-10-16T02:27:57;5.97;;;3.42;;
57561;SDS011;43397;51.530;5.974;2022-10-16T02:30:28;5.30;;;3.20;;
57561;SDS011;43397;51.530;5.974;2022-10-16T02:32:59;6.03;;;3.15;;
57561;SDS011;43397;51.530;5.974;2022-10-16T02:35:27;8.13;;;2.95;;
57561;SDS011;43397;51.530;5.974;2022-10-16T02:37:56;5.07;;;3.00;;
57561;SDS011;43397;51.530;5.974;2022-10-16T02:40:22;6.38;;;3.28;;
57561;SDS011;43397;51.530;5.974;2022-10-16T02:42:49;5.10;;;2.78;;
57561;SDS011;43397;51.530;5.974;2022-10-16T02:45:16;6.47;;;2.83;;
57561;SDS011;43397;51.530;5.974;2022-10-16T02:47:43;6.13;;;3.15;;
57561;SDS011;43397;51.530;5.974;2022-10-16T02:50:10;5.15;;;3.00;;
57561;SDS011;43397;51.530;5.974;2022-10-16T02:52:36;6.80;;;2.90;;
57561;SDS011;43397;51.530;5.974;2022-10-16T02:55:02;6.93;;;3.20;;
57561;SDS011;43397;51.530;5.974;2022-10-16T02:57:28;6.03;;;3.42;;
57561;SDS011;43397;51.530;5.974;2022-10-16T02:59:53;6.00;;;3.22;;
57561;SDS011;43397;51.530;5.974;2022-10-16T03:02:19;6.72;;;3.45;;
57561;SDS011;43397;51.530;5.974;2022-10-16T03:04:46;5.68;;;2.90;;
57561;SDS011;43397;51.530;5.974;2022-10-16T03:07:13;6.63;;;2.90;;
57561;SDS011;43397;51.530;5.974;2022-10-16T03:09:38;6.20;;;3.00;;
57561;SDS011;43397;51.530;5.974;2022-10-16T03:12:04;5.70;;;3.10;;
57561;SDS011;43397;51.530;5.974;2022-10-16T03:14:30;5.45;;;2.95;;
57561;SDS011;43397;51.530;5.974;2022-10-16T03:16:56;6.03;;;2.95;;
57561;SDS011;43397;51.530;5.974;2022-10-16T03:19:21;5.30;;;3.38;;
57561;SDS011;43397;51.530;5.974;2022-10-16T03:21:47;4.85;;;2.85;;
57561;SDS011;43397;51.530;5.974;2022-10-16T03:24:14;5.28;;;3.05;;
57561;SDS011;43397;51.530;5.974;2022-10-16T03:26:40;6.80;;;3.03;;
57561;SDS011;43397;51.530;5.974;2022-10-16T03:29:06;7.43;;;3.55;;
57561;SDS011;43397;51.530;5.974;2022-10-16T03:31:33;5.88;;;2.67;;
57561;SDS011;43397;51.530;5.974;2022-10-16T03:33:59;4.85;;;2.70;;
57561;SDS011;43397;51.530;5.974;2022-10-16T03:36:25;6.78;;;2.92;;
57561;SDS011;43397;51.530;5.974;2022-10-16T03:38:51;5.32;;;2.85;;
57561;SDS011;43397;51.530;5.974;2022-10-16T03:41:18;4.70;;;3.00;;
57561;SDS011;43397;51.530;5.974;2022-10-16T03:43:44;4.50;;;2.53;;
57561;SDS011;43397;51.530;5.974;2022-10-16T03:46:10;5.45;;;2.63;;
57561;SDS011;43397;51.530;5.974;2022-10-16T03:48:36;6.00;;;3.10;;
57561;SDS011;43397;51.530;5.974;2022-10-16T03:51:01;6.45;;;3.20;;
57561;SDS011;43397;51.530;5.974;2022-10-16T03:53:27;4.68;;;2.65;;
57561;SDS011;43397;51.530;5.974;2022-10-16T03:55:53;5.60;;;2.63;;
57561;SDS011;43397;51.530;5.974;2022-10-16T03:58:20;5.57;;;2.90;;
57561;SDS011;43397;51.530;5.974;2022-10-16T04:00:46;5.13;;;2.67;;
57561;SDS011;43397;51.530;5.974;2022-10-16T04:03:12;4.70;;;2.55;;
57561;SDS011;43397;51.530;5.974;2022-10-16T04:05:38;4.95;;;2.70;;
57561;SDS011;43397;51.530;5.974;2022-10-16T04:08:04;5.82;;;2.78;;
57561;SDS011;43397;51.530;5.974;2022-10-16T04:10:30;4.70;;;2.90;;
57561;SDS011;43397;51.530;5.974;2022-10-16T04:12:56;4.82;;;2.65;;
57561;SDS011;43397;51.530;5.974;2022-10-16T04:15:23;5.65;;;2.78;;
57561;SDS011;43397;51.530;5.974;2022-10-16T04:17:49;5.40;;;2.72;;
57561;SDS011;43397;51.530;5.974;2022-10-16T04:20:15;5.75;;;2.80;;
57561;SDS011;43397;51.530;5.974;2022-10-16T04:22:41;5.65;;;2.40;;
57561;SDS011;43397;51.530;5.974;2022-10-16T04:25:07;5.28;;;2.70;;
57561;SDS011;43397;51.530;5.974;2022-10-16T04:27:33;6.40;;;2.67;;
57561;SDS011;43397;51.530;5.974;2022-10-16T04:29:59;7.60;;;2.70;;
57561;SDS011;43397;51.530;5.974;2022-10-16T04:32:27;5.38;;;2.50;;
57561;SDS011;43397;51.530;5.974;2022-10-16T04:34:52;5.18;;;2.80;;
57561;SDS011;43397;51.530;5.974;2022-10-16T04:37:18;4.63;;;2.47;;
57561;SDS011;43397;51.530;5.974;2022-10-16T04:39:44;5.20;;;2.78;;
57561;SDS011;43397;51.530;5.974;2022-10-16T04:42:10;4.47;;;2.50;;
57561;SDS011;43397;51.530;5.974;2022-10-16T04:44:36;6.90;;;2.90;;
57561;SDS011;43397;51.530;5.974;2022-10-16T04:47:02;5.25;;;2.53;;
57561;SDS011;43397;51.530;5.974;2022-10-16T04:49:29;5.75;;;2.70;;
57561;SDS011;43397;51.530;5.974;2022-10-16T04:51:55;4.93;;;2.58;;
57561;SDS011;43397;51.530;5.974;2022-10-16T04:54:20;4.90;;;2.78;;
57561;SDS011;43397;51.530;5.974;2022-10-16T04:56:46;7.00;;;2.60;;
57561;SDS011;43397;51.530;5.974;2022-10-16T04:59:12;5.78;;;3.15;;
57561;SDS011;43397;51.530;5.974;2022-10-16T05:01:38;5.10;;;2.30;;
57561;SDS011;43397;51.530;5.974;2022-10-16T05:04:04;6.43;;;2.97;;
57561;SDS011;43397;51.530;5.974;2022-10-16T05:06:31;8.18;;;2.80;;
57561;SDS011;43397;51.530;5.974;2022-10-16T05:08:57;5.13;;;2.83;;
57561;SDS011;43397;51.530;5.974;2022-10-16T05:11:23;6.70;;;2.75;;
57561;SDS011;43397;51.530;5.974;2022-10-16T05:13:49;5.28;;;2.60;;
57561;SDS011;43397;51.530;5.974;2022-10-16T05:16:15;5.78;;;2.40;;
57561;SDS011;43397;51.530;5.974;2022-10-16T05:18:40;5.50;;;2.88;;
57561;SDS011;43397;51.530;5.974;2022-10-16T05:21:06;5.70;;;2.58;;
57561;SDS011;43397;51.530;5.974;2022-10-16T05:23:33;4.82;;;2.60;;
57561;SDS011;43397;51.530;5.974;2022-10-16T05:25:59;5.05;;;2.90;;
57561;SDS011;43397;51.530;5.974;2022-10-16T05:28:25;5.10;;;2.65;;
57561;SDS011;43397;51.530;5.974;2022-10-16T05:30:52;5.13;;;2.70;;
57561;SDS011;43397;51.530;5.974;2022-10-16T05:33:19;4.85;;;2.55;;
57561;SDS011;43397;51.530;5.974;2022-10-16T05:35:45;5.13;;;2.60;;
57561;SDS011;43397;51.530;5.974;2022-10-16T05:38:11;6.15;;;2.50;;
57561;SDS011;43397;51.530;5.974;2022-10-16T05:40:38;5.63;;;2.30;;
57561;SDS011;43397;51.530;5.974;2022-10-16T05:43:04;5.45;;;2.53;;
57561;SDS011;43397;51.530;5.974;2022-10-16T05:45:30;5.93;;;2.60;;
57561;SDS011;43397;51.530;5.974;2022-10-16T05:47:56;5.13;;;2.50;;
57561;SDS011;43397;51.530;5.974;2022-10-16T05:50:22;5.75;;;2.90;;
57561;SDS011;43397;51.530;5.974;2022-10-16T05:52:47;4.13;;;2.33;;
57561;SDS011;43397;51.530;5.974;2022-10-16T05:55:13;6.50;;;2.63;;
57561;SDS011;43397;51.530;5.974;2022-10-16T05:57:40;4.40;;;2.45;;
57561;SDS011;43397;51.530;5.974;2022-10-16T06:00:06;7.05;;;2.55;;
57561;SDS011;43397;51.530;5.974;2022-10-16T06:02:33;5.85;;;2.88;;
57561;SDS011;43397;51.530;5.974;2022-10-16T06:04:59;5.03;;;2.90;;
57561;SDS011;43397;51.530;5.974;2022-10-16T06:07:25;5.15;;;2.70;;
57561;SDS011;43397;51.530;5.974;2022-10-16T06:09:52;5.13;;;2.78;;
57561;SDS011;43397;51.530;5.974;2022-10-16T06:12:18;6.07;;;2.88;;
57561;SDS011;43397;51.530;5.974;2022-10-16T06:14:45;4.88;;;2.58;;
57561;SDS011;43397;51.530;5.974;2022-10-16T06:17:12;6.20;;;2.65;;
57561;SDS011;43397;51.530;5.974;2022-10-16T06:19:38;5.60;;;2.88;;
57561;SDS011;43397;51.530;5.974;2022-10-16T06:22:03;5.57;;;2.50;;
57561;SDS011;43397;51.530;5.974;2022-10-16T06:24:29;5.75;;;2.45;;
57561;SDS011;43397;51.530;5.974;2022-10-16T06:26:55;7.03;;;3.03;;
57561;SDS011;43397;51.530;5.974;2022-10-16T06:29:21;4.68;;;2.65;;
57561;SDS011;43397;51.530;5.974;2022-10-16T06:31:48;7.63;;;2.60;;
57561;SDS011;43397;51.530;5.974;2022-10-16T06:34:14;5.57;;;3.10;;
57561;SDS011;43397;51.530;5.974;2022-10-16T06:36:40;7.40;;;3.15;;
57561;SDS011;43397;51.530;5.974;2022-10-16T06:39:06;6.57;;;3.20;;
57561;SDS011;43397;51.530;5.974;2022-10-16T06:41:32;5.82;;;2.67;;
57561;SDS011;43397;51.530;5.974;2022-10-16T06:43:58;6.15;;;3.10;;
57561;SDS011;43397;51.530;5.974;2022-10-16T06:46:24;9.30;;;2.97;;
57561;SDS011;43397;51.530;5.974;2022-10-16T06:48:52;6.30;;;2.80;;
57561;SDS011;43397;51.530;5.974;2022-10-16T06:51:19;6.72;;;3.10;;
57561;SDS011;43397;51.530;5.974;2022-10-16T06:53:46;5.43;;;3.03;;
57561;SDS011;43397;51.530;5.974;2022-10-16T06:56:14;7.38;;;3.10;;
57561;SDS011;43397;51.530;5.974;2022-10-16T06:58:42;6.25;;;3.50;;
57561;SDS011;43397;51.530;5.974;2022-10-16T07:01:08;6.18;;;3.38;;
57561;SDS011;43397;51.530;5.974;2022-10-16T07:03:35;7.82;;;3.85;;
57561;SDS011;43397;51.530;5.974;2022-10-16T07:06:04;6.93;;;3.47;;
57561;SDS011;43397;51.530;5.974;2022-10-16T07:08:31;7.72;;;4.25;;
57561;SDS011;43397;51.530;5.974;2022-10-16T07:10:58;7.63;;;3.63;;
57561;SDS011;43397;51.530;5.974;2022-10-16T07:13:24;6.55;;;3.60;;
57561;SDS011;43397;51.530;5.974;2022-10-16T07:15:50;7.63;;;3.55;;
57561;SDS011;43397;51.530;5.974;2022-10-16T07:18:16;7.15;;;3.63;;
57561;SDS011;43397;51.530;5.974;2022-10-16T07:20:42;6.97;;;3.65;;
57561;SDS011;43397;51.530;5.974;2022-10-16T07:23:09;6.55;;;3.63;;
57561;SDS011;43397;51.530;5.974;2022-10-16T07:25:35;7.15;;;3.45;;
57561;SDS011;43397;51.530;5.974;2022-10-16T07:28:01;8.43;;;3.40;;
57561;SDS011;43397;51.530;5.974;2022-10-16T07:30:27;6.35;;;3.20;;
57561;SDS011;43397;51.530;5.974;2022-10-16T07:32:52;5.88;;;3.17;;
57561;SDS011;43397;51.530;5.974;2022-10-16T07:35:18;6.68;;;3.10;;
57561;SDS011;43397;51.530;5.974;2022-10-16T07:37:44;5.97;;;3.45;;
57561;SDS011;43397;51.530;5.974;2022-10-16T07:40:12;5.68;;;3.67;;
57561;SDS011;43397;51.530;5.974;2022-10-16T07:42:37;6.57;;;3.30;;
57561;SDS011;43397;51.530;5.974;2022-10-16T07:45:03;7.30;;;3.47;;
57561;SDS011;43397;51.530;5.974;2022-10-16T07:47:30;7.80;;;3.70;;
57561;SDS011;43397;51.530;5.974;2022-10-16T07:49:56;7.80;;;4.15;;
57561;SDS011;43397;51.530;5.974;2022-10-16T07:52:22;6.47;;;3.70;;
57561;SDS011;43397;51.530;5.974;2022-10-16T07:54:47;5.95;;;3.55;;
57561;SDS011;43397;51.530;5.974;2022-10-16T07:57:15;5.80;;;3.30;;
57561;SDS011;43397;51.530;5.974;2022-10-16T07:59:40;6.85;;;3.72;;
57561;SDS011;43397;51.530;5.974;2022-10-16T08:02:07;6.32;;;3.85;;
57561;SDS011;43397;51.530;5.974;2022-10-16T08:04:33;7.50;;;4.18;;
57561;SDS011;43397;51.530;5.974;2022-10-16T08:06:58;8.00;;;3.83;;
57561;SDS011;43397;51.530;5.974;2022-10-16T08:09:24;8.88;;;4.07;;
57561;SDS011;43397;51.530;5.974;2022-10-16T08:11:50;10.27;;;4.20;;
57561;SDS011;43397;51.530;5.974;2022-10-16T08:14:18;8.20;;;4.18;;
57561;SDS011;43397;51.530;5.974;2022-10-16T08:16:44;8.30;;;3.83;;
57561;SDS011;43397;51.530;5.974;2022-10-16T08:19:09;8.18;;;3.72;;
57561;SDS011;43397;51.530;5.974;2022-10-16T08:21:35;7.35;;;3.20;;
57561;SDS011;43397;51.530;5.974;2022-10-16T08:24:01;8.52;;;3.78;;
57561;SDS011;43397;51.530;5.974;2022-10-16T08:26:27;8.23;;;3.35;;
57561;SDS011;43397;51.530;5.974;2022-10-16T08:28:53;6.57;;;3.40;;
57561;SDS011;43397;51.530;5.974;2022-10-16T08:31:21;6.93;;;3.13;;
57561;SDS011;43397;51.530;5.974;2022-10-16T08:33:47;7.22;;;2.95;;
57561;SDS011;43397;51.530;5.974;2022-10-16T08:36:13;6.13;;;3.22;;
57561;SDS011;43397;51.530;5.974;2022-10-16T08:38:40;6.03;;;3.10;;
57561;SDS011;43397;51.530;5.974;2022-10-16T08:41:13;6.03;;;3.30;;
57561;SDS011;43397;51.530;5.974;2022-10-16T08:43:53;6.82;;;3.33;;
57561;SDS011;43397;51.530;5.974;2022-10-16T08:46:32;5.22;;;3.00;;
57561;SDS011;43397;51.530;5.974;2022-10-16T08:49:08;6.60;;;3.28;;
57561;SDS011;43397;51.530;5.974;2022-10-16T08:51:37;8.07;;;2.83;;
57561;SDS011;43397;51.530;5.974;2022-10-16T08:54:04;5.43;;;2.60;;
57561;SDS011;43397;51.530;5.974;2022-10-16T08:56:31;5.10;;;2.83;;
57561;SDS011;43397;51.530;5.974;2022-10-16T08:58:58;5.55;;;2.80;;
57561;SDS011;43397;51.530;5.974;2022-10-16T09:01:25;4.47;;;2.67;;
57561;SDS011;43397;51.530;5.974;2022-10-16T09:04:11;5.57;;;2.45;;
57561;SDS011;43397;51.530;5.974;2022-10-16T09:07:00;5.22;;;2.20;;
57561;SDS011;43397;51.530;5.974;2022-10-16T09:09:39;6.07;;;2.50;;
57561;SDS011;43397;51.530;5.974;2022-10-16T09:12:18;6.25;;;2.45;;
57561;SDS011;43397;51.530;5.974;2022-10-16T09:14:54;5.15;;;2.60;;
57561;SDS011;43397;51.530;5.974;2022-10-16T09:17:34;5.97;;;2.40;;
57561;SDS011;43397;51.530;5.974;2022-10-16T09:22:43;7.32;;;2.28;;
57561;SDS011;43397;51.530;5.974;2022-10-16T09:25:10;4.65;;;2.20;;
57561;SDS011;43397;51.530;5.974;2022-10-16T09:27:38;7.97;;;2.75;;
57561;SDS011;43397;51.530;5.974;2022-10-16T09:30:10;6.47;;;2.40;;
57561;SDS011;43397;51.530;5.974;2022-10-16T09:32:39;5.75;;;1.70;;
57561;SDS011;43397;51.530;5.974;2022-10-16T09:35:09;5.70;;;1.73;;
57561;SDS011;43397;51.530;5.974;2022-10-16T09:37:39;8.88;;;2.08;;
57561;SDS011;43397;51.530;5.974;2022-10-16T09:40:11;6.20;;;1.95;;
57561;SDS011;43397;51.530;5.974;2022-10-16T09:42:38;4.78;;;1.80;;
57561;SDS011;43397;51.530;5.974;2022-10-16T09:45:05;7.47;;;2.00;;
57561;SDS011;43397;51.530;5.974;2022-10-16T09:47:32;6.15;;;1.90;;
57561;SDS011;43397;51.530;5.974;2022-10-16T09:50:22;6.05;;;1.70;;
57561;SDS011;43397;51.530;5.974;2022-10-16T09:52:50;6.20;;;1.95;;
57561;SDS011;43397;51.530;5.974;2022-10-16T09:55:17;8.13;;;1.80;;
57561;SDS011;43397;51.530;5.974;2022-10-16T09:57:48;7.85;;;1.73;;
57561;SDS011;43397;51.530;5.974;2022-10-16T10:00:15;7.60;;;1.85;;
57561;SDS011;43397;51.530;5.974;2022-10-16T10:02:43;6.43;;;2.00;;
57561;SDS011;43397;51.530;5.974;2022-10-16T10:05:17;4.13;;;1.60;;
57561;SDS011;43397;51.530;5.974;2022-10-16T10:07:45;6.75;;;1.67;;
57561;SDS011;43397;51.530;5.974;2022-10-16T10:10:18;5.53;;;2.08;;
57561;SDS011;43397;51.530;5.974;2022-10-16T10:12:46;5.88;;;1.83;;
57561;SDS011;43397;51.530;5.974;2022-10-16T10:15:12;5.20;;;1.40;;
57561;SDS011;43397;51.530;5.974;2022-10-16T10:17:46;9.93;;;1.92;;
57561;SDS011;43397;51.530;5.974;2022-10-16T10:20:18;5.53;;;1.50;;
57561;SDS011;43397;51.530;5.974;2022-10-16T10:22:48;5.65;;;1.38;;
57561;SDS011;43397;51.530;5.974;2022-10-16T10:28:15;7.68;;;1.92;;
57561;SDS011;43397;51.530;5.974;2022-10-16T10:30:49;4.30;;;1.35;;
57561;SDS011;43397;51.530;5.974;2022-10-16T10:33:25;8.15;;;1.85;;
57561;SDS011;43397;51.530;5.974;2022-10-16T10:35:59;5.15;;;1.63;;
57561;SDS011;43397;51.530;5.974;2022-10-16T10:38:31;6.35;;;1.98;;
57561;SDS011;43397;51.530;5.974;2022-10-16T10:41:10;4.97;;;1.80;;
57561;SDS011;43397;51.530;5.974;2022-10-16T10:43:49;7.43;;;1.50;;
57561;SDS011;43397;51.530;5.974;2022-10-16T10:46:28;5.75;;;1.42;;
57561;SDS011;43397;51.530;5.974;2022-10-16T10:49:05;8.63;;;1.52;;
57561;SDS011;43397;51.530;5.974;2022-10-16T10:51:40;5.60;;;1.42;;
57561;SDS011;43397;51.530;5.974;2022-10-16T10:54:17;7.53;;;1.60;;
57561;SDS011;43397;51.530;5.974;2022-10-16T10:56:51;5.43;;;1.38;;
57561;SDS011;43397;51.530;5.974;2022-10-16T11:02:16;6.80;;;1.50;;
57561;SDS011;43397;51.530;5.974;2022-10-16T11:07:46;7.45;;;2.28;;
57561;SDS011;43397;51.530;5.974;2022-10-16T11:10:15;7.70;;;1.58;;
57561;SDS011;43397;51.530;5.974;2022-10-16T11:12:46;6.20;;;1.63;;
57561;SDS011;43397;51.530;5.974;2022-10-16T11:15:16;6.03;;;1.70;;
57561;SDS011;43397;51.530;5.974;2022-10-16T11:17:47;7.18;;;1.50;;
57561;SDS011;43397;51.530;5.974;2022-10-16T11:20:19;6.78;;;1.50;;
57561;SDS011;43397;51.530;5.974;2022-10-16T11:22:50;7.45;;;1.40;;
57561;SDS011;43397;51.530;5.974;2022-10-16T11:25:20;4.35;;;1.60;;
57561;SDS011;43397;51.530;5.974;2022-10-16T11:27:49;5.85;;;1.58;;
57561;SDS011;43397;51.530;5.974;2022-10-16T11:30:21;7.70;;;1.85;;
57561;SDS011;43397;51.530;5.974;2022-10-16T11:32:52;5.65;;;1.20;;
57561;SDS011;43397;51.530;5.974;2022-10-16T11:35:30;8.35;;;1.85;;
57561;SDS011;43397;51.530;5.974;2022-10-16T11:38:03;6.85;;;1.50;;
57561;SDS011;43397;51.530;5.974;2022-10-16T11:40:35;7.20;;;1.33;;
57561;SDS011;43397;51.530;5.974;2022-10-16T11:43:09;4.57;;;1.30;;
57561;SDS011;43397;51.530;5.974;2022-10-16T11:45:40;7.13;;;1.30;;
57561;SDS011;43397;51.530;5.974;2022-10-16T11:48:10;7.43;;;1.40;;
57561;SDS011;43397;51.530;5.974;2022-10-16T11:50:45;5.72;;;0.90;;
57561;SDS011;43397;51.530;5.974;2022-10-16T11:53:18;5.57;;;1.20;;
57561;SDS011;43397;51.530;5.974;2022-10-16T11:55:52;7.47;;;1.40;;
57561;SDS011;43397;51.530;5.974;2022-10-16T11:58:21;4.72;;;0.95;;
57561;SDS011;43397;51.530;5.974;2022-10-16T12:00:53;5.93;;;1.67;;
57561;SDS011;43397;51.530;5.974;2022-10-16T12:03:26;7.38;;;1.33;;
57561;SDS011;43397;51.530;5.974;2022-10-16T12:06:11;9.93;;;2.05;;
57561;SDS011;43397;51.530;5.974;2022-10-16T12:08:48;4.93;;;1.00;;
57561;SDS011;43397;51.530;5.974;2022-10-16T12:11:23;3.83;;;1.10;;
57561;SDS011;43397;51.530;5.974;2022-10-16T12:14:03;6.38;;;1.27;;
57561;SDS011;43397;51.530;5.974;2022-10-16T12:16:31;5.78;;;1.08;;
57561;SDS011;43397;51.530;5.974;2022-10-16T12:19:10;10.68;;;1.88;;
57561;SDS011;43397;51.530;5.974;2022-10-16T12:21:39;7.47;;;1.30;;
57561;SDS011;43397;51.530;5.974;2022-10-16T12:24:06;5.97;;;1.00;;
57561;SDS011;43397;51.530;5.974;2022-10-16T12:26:52;6.07;;;0.98;;
57561;SDS011;43397;51.530;5.974;2022-10-16T12:29:22;5.97;;;1.70;;
57561;SDS011;43397;51.530;5.974;2022-10-16T12:31:53;5.93;;;1.73;;
57561;SDS011;43397;51.530;5.974;2022-10-16T12:34:21;3.15;;;1.20;;
57561;SDS011;43397;51.530;5.974;2022-10-16T12:36:53;8.02;;;1.60;;
57561;SDS011;43397;51.530;5.974;2022-10-16T12:39:20;9.90;;;1.42;;
57561;SDS011;43397;51.530;5.974;2022-10-16T12:41:59;7.93;;;1.53;;
57561;SDS011;43397;51.530;5.974;2022-10-16T12:44:27;7.17;;;1.17;;
57561;SDS011;43397;51.530;5.974;2022-10-16T12:46:58;7.18;;;1.20;;
57561;SDS011;43397;51.530;5.974;2022-10-16T12:49:29;6.13;;;1.25;;
57561;SDS011;43397;51.530;5.974;2022-10-16T12:51:58;8.38;;;1.30;;
57561;SDS011;43397;51.530;5.974;2022-10-16T12:54:25;5.22;;;1.25;;
57561;SDS011;43397;51.530;5.974;2022-10-16T12:57:06;5.65;;;0.93;;
57561;SDS011;43397;51.530;5.974;2022-10-16T12:59:46;7.28;;;1.27;;
57561;SDS011;43397;51.530;5.974;2022-10-16T13:05:25;4.53;;;1.38;;
57561;SDS011;43397;51.530;5.974;2022-10-16T13:08:02;5.57;;;1.23;;
57561;SDS011;43397;51.530;5.974;2022-10-16T13:10:41;5.93;;;1.10;;
57561;SDS011;43397;51.530;5.974;2022-10-16T13:13:31;6.25;;;1.20;;
57561;SDS011;43397;51.530;5.974;2022-10-16T13:16:10;5.88;;;1.15;;
57561;SDS011;43397;51.530;5.974;2022-10-16T13:18:46;6.75;;;1.30;;
57561;SDS011;43397;51.530;5.974;2022-10-16T13:21:26;4.72;;;1.10;;
57561;SDS011;43397;51.530;5.974;2022-10-16T13:24:09;5.40;;;1.40;;
57561;SDS011;43397;51.530;5.974;2022-10-16T13:29:11;5.63;;;1.23;;
57561;SDS011;43397;51.530;5.974;2022-10-16T13:31:38;5.38;;;1.17;;
57561;SDS011;43397;51.530;5.974;2022-10-16T13:34:04;5.07;;;1.38;;
57561;SDS011;43397;51.530;5.974;2022-10-16T13:36:35;6.40;;;1.20;;
57561;SDS011;43397;51.530;5.974;2022-10-16T13:39:14;5.53;;;1.55;;
57561;SDS011;43397;51.530;5.974;2022-10-16T13:41:41;3.38;;;1.23;;
57561;SDS011;43397;51.530;5.974;2022-10-16T13:44:11;5.32;;;1.13;;
57561;SDS011;43397;51.530;5.974;2022-10-16T13:46:39;5.00;;;1.15;;
57561;SDS011;43397;51.530;5.974;2022-10-16T13:49:05;7.38;;;1.30;;
57561;SDS011;43397;51.530;5.974;2022-10-16T13:51:38;7.82;;;1.30;;
57561;SDS011;43397;51.530;5.974;2022-10-16T13:54:04;6.55;;;1.23;;
57561;SDS011;43397;51.530;5.974;2022-10-16T13:56:32;5.25;;;1.20;;
57561;SDS011;43397;51.530;5.974;2022-10-16T13:58:58;5.28;;;1.38;;
57561;SDS011;43397;51.530;5.974;2022-10-16T14:01:26;7.07;;;1.55;;
57561;SDS011;43397;51.530;5.974;2022-10-16T14:04:00;7.25;;;2.03;;
57561;SDS011;43397;51.530;5.974;2022-10-16T14:06:27;4.05;;;1.23;;
57561;SDS011;43397;51.530;5.974;2022-10-16T14:08:54;4.53;;;1.50;;
57561;SDS011;43397;51.530;5.974;2022-10-16T14:11:24;6.32;;;1.65;;
57561;SDS011;43397;51.530;5.974;2022-10-16T14:13:52;6.57;;;1.08;;
57561;SDS011;43397;51.530;5.974;2022-10-16T14:16:19;3.97;;;1.10;;
57561;SDS011;43397;51.530;5.974;2022-10-16T14:18:50;3.97;;;1.33;;
57561;SDS011;43397;51.530;5.974;2022-10-16T14:21:22;8.65;;;1.55;;
57561;SDS011;43397;51.530;5.974;2022-10-16T14:23:48;5.38;;;1.48;;
57561;SDS011;43397;51.530;5.974;2022-10-16T14:26:15;4.78;;;1.55;;
57561;SDS011;43397;51.530;5.974;2022-10-16T14:28:42;6.95;;;1.80;;
57561;SDS011;43397;51.530;5.974;2022-10-16T14:33:58;6.43;;;1.70;;
57561;SDS011;43397;51.530;5.974;2022-10-16T14:36:24;4.30;;;1.58;;
57561;SDS011;43397;51.530;5.974;2022-10-16T14:38:59;6.40;;;1.45;;
57561;SDS011;43397;51.530;5.974;2022-10-16T14:41:29;5.40;;;1.80;;
57561;SDS011;43397;51.530;5.974;2022-10-16T14:43:56;4.18;;;1.17;;
57561;SDS011;43397;51.530;5.974;2022-10-16T14:46:28;5.03;;;1.40;;
57561;SDS011;43397;51.530;5.974;2022-10-16T14:49:00;5.07;;;1.30;;
57561;SDS011;43397;51.530;5.974;2022-10-16T14:51:29;4.32;;;1.35;;
57561;SDS011;43397;51.530;5.974;2022-10-16T14:53:55;3.28;;;1.10;;
57561;SDS011;43397;51.530;5.974;2022-10-16T14:56:21;4.22;;;1.20;;
57561;SDS011;43397;51.530;5.974;2022-10-16T14:58:49;3.33;;;1.55;;
57561;SDS011;43397;51.530;5.974;2022-10-16T15:01:16;4.82;;;1.35;;
57561;SDS011;43397;51.530;5.974;2022-10-16T15:03:44;7.00;;;1.88;;
57561;SDS011;43397;51.530;5.974;2022-10-16T15:06:10;6.97;;;1.90;;
57561;SDS011;43397;51.530;5.974;2022-10-16T15:08:37;7.93;;;2.05;;
57561;SDS011;43397;51.530;5.974;2022-10-16T15:11:03;4.50;;;1.20;;
57561;SDS011;43397;51.530;5.974;2022-10-16T15:13:30;6.13;;;1.90;;
57561;SDS011;43397;51.530;5.974;2022-10-16T15:15:55;3.83;;;1.70;;
57561;SDS011;43397;51.530;5.974;2022-10-16T15:18:21;6.03;;;1.80;;